メインページ
METAR-TAF:

METAR-TAF

空港 :

新潟空港

新潟, 日本

緯度: 37-57N, 経度: 139-07E, 海抜: 1m

現時点の気象観測

当レポートは22分前の07:00(UTC)に作成
北/北東の風 10kt
気温 27°C
湿度 74%
気圧 1010 hPa
視程10km以上
高度4000ftの雲はほとんどない
千切れ雲あり

METAR: RJSN 200700Z 02010KT 9999 FEW040 BKN/// 27/22 Q1010

時間: 16:22 (07:22 UTC)

予報

当レポートは2時間16分前の05:06(UTC)に作成
予報は20日の 06時(UTC)から 21日の 12時(UTC)まで有効
の風 10kt
視程10km以上
高度3000ftの雲はほとんどない
20日の 12時(UTC)から 20日の 14時(UTC)まで徐々に
南/南東の風 6kt
21日の 00時(UTC)から 21日の 03時(UTC)まで徐々に
北/北東の風 10kt
21日の 09時(UTC)から 21日の 12時(UTC)まで徐々に
南/南東の風 6kt

TAF: RJSN 200506Z 2006/2112 01010KT 9999 FEW030 BECMG 2012/2014 16006KT BECMG 2100/2103 03010KT BECMG 2109/2112 16006KT

4,000以上の空港の気象観測と天気予報(METAR報とTAF報)

利用可能な観測所は地図上に黄色い丸と赤い丸で示す。

丸の上にカーソルを重ねると観測所名を参照できる。

次にクリックすると気象観測と天気予報を参照できる。

マップの切り替え:黒色「×」印の緑ボタンをクリックして拡大、「-」印の緑ボタンをクリックして縮小、緑色の三角印をクリックして隣りの地図に切り替え


METAR-TAF: